Levant, Maine
Current Conditions -  °F | °C
As of 6:53 AM on Tuesday 27 Jan 2015 (Local Time) from KBGR Reporting Station
Heavy Snow Heavy Snow  
Wind Chill: -17°   Ceiling: 400
Heat Index:   Visibility: 0.25mi
Dew Point:   Wind: 29mph
Humidity: 83%   Direction: 10°N
Pressure: 29.86"   Gusts: 41mph
Location:  44.87°N, 68.94°W
Report Text: KBGR 271153Z 01025G36KT 1/4SM R15/2200V2600FT +SN BLSN VV004 M14/M17 A2986 RMK AO2 PK WND 01036/1153 SLP117 P0000 60000 T11441167 11128 21144 58047
Loading
Personal Weather Stations






























Interactive Weather Map New forecast layout! Learn more

10-Day Weather Forecast

Advertisements
Track Severe Weather on mobile